Time;durP1;ratioP1;P1;durP2;ratioP2;P2;SDS_P1;SDS_P2;PMS_P1;PMS_P2;Temp;Humidity;BMP_temperature;BMP_pressure;BME280_temperature;BME280_humidity;BME280_pressure;Samples;Min_cycle;Max_cycle;Signal;HPM_P1;HPM_P2
2022/10/18 00:00:23;;;;;;;1999.90;999.90;;;;;;;12.19;100.00;95483.16;5114628;28;20199;-57
2022/10/18 00:02:49;;;;;;;1999.90;999.90;;;;;;;12.22;100.00;95476.88;5117375;28;20178;-58
2022/10/18 00:05:14;;;;;;;1999.90;999.90;;;;;;;12.23;100.00;95470.97;5117208;28;20187;-57
2022/10/18 00:07:39;;;;;;;1999.90;999.90;;;;;;;12.22;100.00;95463.16;5116791;28;20176;-57
2022/10/18 00:10:05;;;;;;;1999.90;999.90;;;;;;;12.20;100.00;95469.06;5117689;28;20174;-58
2022/10/18 00:12:36;;;;;;;1999.90;999.90;;;;;;;12.21;100.00;95467.09;5116939;28;20190;-57
2022/10/18 00:15:03;;;;;;;1999.90;999.90;;;;;;;12.18;100.00;95485.13;5117375;28;20177;-62
2022/10/18 00:17:28;;;;;;;1999.90;999.90;;;;;;;12.14;100.00;95472.66;5117192;28;20185;-62
2022/10/18 00:19:53;;;;;;;1999.90;999.90;;;;;;;12.12;100.00;95475.03;5116951;28;20173;-62
2022/10/18 00:22:19;;;;;;;1999.90;999.90;;;;;;;12.07;100.00;95467.28;5116708;28;20176;-62
2022/10/18 00:24:44;;;;;;;1999.90;999.90;;;;;;;12.07;100.00;95472.75;5116867;28;20185;-62
2022/10/18 00:27:10;;;;;;;1999.90;999.90;;;;;;;12.04;100.00;95479.03;5116446;28;20178;-62
2022/10/18 00:29:35;;;;;;;1999.90;999.90;;;;;;;12.02;100.00;95481.44;5116211;28;20249;-62
2022/10/18 00:32:00;;;;;;;1999.90;999.90;;;;;;;11.99;100.00;95474.03;5117122;28;20201;-61
2022/10/18 00:34:26;;;;;;;1999.90;999.90;;;;;;;11.93;100.00;95461.97;5117059;28;20245;-72
2022/10/18 00:36:51;;;;;;;1999.90;999.90;;;;;;;11.94;100.00;95460.78;5116558;28;20178;-59
2022/10/18 00:39:19;;;;;;;1999.90;999.90;;;;;;;11.96;100.00;95456.47;5116191;28;20183;-58
2022/10/18 00:41:45;;;;;;;1999.90;999.90;;;;;;;11.94;100.00;95452.56;5116373;28;20198;-58
2022/10/18 00:44:10;;;;;;;1999.90;999.90;;;;;;;11.93;100.00;95451.03;5116390;28;20182;-59
2022/10/18 00:46:48;;;;;;;1999.90;999.90;;;;;;;11.91;100.00;95447.94;5116458;28;20187;-58
2022/10/18 00:49:20;;;;;;;1999.90;999.90;;;;;;;11.89;100.00;95444.84;5116707;28;20205;-58
2022/10/18 00:51:54;;;;;;;1999.90;999.90;;;;;;;11.85;100.00;95446.84;5116968;28;20181;-65
2022/10/18 00:54:19;;;;;;;1999.90;999.90;;;;;;;11.81;100.00;95451.59;5116904;28;20169;-58
2022/10/18 00:56:45;;;;;;;1999.90;999.90;;;;;;;11.79;100.00;95448.47;5116708;28;20176;-58
2022/10/18 00:59:13;;;;;;;1999.90;999.90;;;;;;;11.76;100.00;95446.56;5116136;28;20182;-58
2022/10/18 01:01:39;;;;;;;1999.90;999.90;;;;;;;11.73;100.00;95447.38;5115940;28;20286;-58
2022/10/18 01:04:04;;;;;;;1999.90;999.90;;;;;;;11.70;100.00;95450.94;5115788;28;20228;-59
2022/10/18 01:06:30;;;;;;;1999.90;999.90;;;;;;;11.67;100.00;95444.31;5116098;28;20200;-58
2022/10/18 01:09:05;;;;;;;1999.90;999.90;;;;;;;11.65;100.00;95441.22;5116023;28;20186;-58
2022/10/18 01:11:48;;;;;;;1999.90;999.90;;;;;;;11.66;100.00;95431.81;5115379;28;20181;-59
2022/10/18 01:14:34;;;;;;;1999.90;999.90;;;;;;;11.66;100.00;95431.06;5116174;28;20178;-58
2022/10/18 01:17:10;;;;;;;1999.90;999.90;;;;;;;11.62;100.00;95428.34;5114986;28;20273;-58
2022/10/18 01:20:07;;;;;;;1999.90;999.90;;;;;;;11.62;100.00;95424.84;5116354;28;20204;-57
2022/10/18 01:22:40;;;;;;;1999.90;999.90;;;;;;;11.58;100.00;95424.84;5116208;28;20224;-57
2022/10/18 01:25:13;;;;;;;1999.90;999.90;;;;;;;11.55;100.00;95422.16;5115956;28;20203;-58
2022/10/18 01:27:54;;;;;;;1999.90;999.90;;;;;;;11.55;100.00;95424.91;5116130;28;20314;-57
2022/10/18 01:30:48;;;;;;;1999.90;999.90;;;;;;;11.57;100.00;95417.03;5115899;28;20182;-58
2022/10/18 01:33:23;;;;;;;1999.90;999.90;;;;;;;11.54;100.00;95417.88;5115905;28;20176;-58
2022/10/18 01:35:56;;;;;;;1999.90;999.90;;;;;;;11.52;100.00;95422.97;5115514;28;20181;-57
2022/10/18 01:38:24;;;;;;;1999.90;999.90;;;;;;;11.49;100.00;95421.06;5115470;28;20180;-58
2022/10/18 01:40:51;;;;;;;1999.90;999.90;;;;;;;11.44;100.00;95414.06;5115108;28;20204;-58
2022/10/18 01:43:20;;;;;;;1999.90;999.90;;;;;;;11.47;100.00;95423.44;5114993;28;20177;-57
2022/10/18 01:45:46;;;;;;;1999.90;999.90;;;;;;;11.45;100.00;95420.31;5115025;28;20180;-57
2022/10/18 01:48:13;;;;;;;1999.90;999.90;;;;;;;11.44;100.00;95429.72;5115650;28;20174;-61
2022/10/18 01:50:39;;;;;;;1999.90;999.90;;;;;;;11.43;100.00;95428.13;5115679;28;20178;-61
2022/10/18 01:53:05;;;;;;;1999.90;999.90;;;;;;;11.38;100.00;95432.13;5115177;28;20194;-62
2022/10/18 01:55:42;;;;;;;1999.90;999.90;;;;;;;11.37;100.00;95429.78;5115585;28;20176;-62
2022/10/18 01:58:17;;;;;;;1999.90;999.90;;;;;;;11.39;100.00;95430.13;5115608;28;20168;-62
2022/10/18 02:00:43;;;;;;;1999.90;999.90;;;;;;;11.36;100.00;95428.25;5114855;28;20207;-62
2022/10/18 02:03:22;;;;;;;1999.90;999.90;;;;;;;11.34;100.00;95431.38;5115750;28;20179;-62
2022/10/18 02:05:56;;;;;;;1999.90;999.90;;;;;;;11.32;100.00;95416.53;5115592;28;20171;-59
2022/10/18 02:08:41;;;;;;;1999.90;999.90;;;;;;;11.31;100.00;95425.94;5115229;28;20166;-58
2022/10/18 02:11:15;;;;;;;1999.90;999.90;;;;;;;11.29;100.00;95425.59;5115376;28;20166;-68
2022/10/18 02:13:44;;;;;;;1999.90;999.90;;;;;;;11.12;100.00;95424.59;5115245;28;20163;-69
2022/10/18 02:16:17;;;;;;;1999.90;999.90;;;;;;;11.16;100.00;95435.47;5115189;28;20192;-69
2022/10/18 02:18:54;;;;;;;1999.90;999.90;;;;;;;11.14;100.00;95446.81;5115249;28;20164;-69
2022/10/18 02:21:21;;;;;;;1999.90;999.90;;;;;;;11.13;100.00;95447.19;5114673;28;20203;-69
2022/10/18 02:23:47;;;;;;;1999.90;999.90;;;;;;;11.09;100.00;95444.50;5113671;28;20238;-70
2022/10/18 02:26:14;;;;;;;1999.90;999.90;;;;;;;11.07;100.00;95449.59;5115246;28;20164;-58
2022/10/18 02:28:40;;;;;;;1999.90;999.90;;;;;;;11.06;100.00;95447.25;5114059;28;20293;-62
2022/10/18 02:31:17;;;;;;;1999.90;999.90;;;;;;;11.06;100.00;95444.53;5114470;28;20204;-62
2022/10/18 02:33:47;;;;;;;1999.90;999.90;;;;;;;11.10;100.00;95442.53;5114595;28;20421;-62
2022/10/18 02:36:20;;;;;;;1999.90;999.90;;;;;;;11.13;100.00;95439.00;5114395;28;20240;-62
2022/10/18 02:38:48;;;;;;;1999.90;999.90;;;;;;;11.11;100.00;95435.91;5114854;28;20199;-62
2022/10/18 02:41:22;;;;;;;1999.90;999.90;;;;;;;11.09;100.00;95427.34;5113851;28;20296;-62
2022/10/18 02:43:47;;;;;;;1999.90;999.90;;;;;;;11.09;100.00;95427.34;5115010;28;20222;-57
2022/10/18 02:46:12;;;;;;;1999.90;999.90;;;;;;;11.12;100.00;95440.19;5114312;28;20181;-69
2022/10/18 02:48:38;;;;;;;1999.90;999.90;;;;;;;11.14;100.00;95443.31;5113854;28;20195;-70
2022/10/18 02:51:03;;;;;;;1999.90;999.90;;;;;;;11.14;100.00;95437.84;5114059;28;20183;-69
2022/10/18 02:53:28;;;;;;;1999.90;999.90;;;;;;;11.15;100.00;95439.38;5114131;28;20179;-69
2022/10/18 02:55:54;;;;;;;1999.90;999.90;;;;;;;11.11;100.00;95433.19;5113768;28;20184;-69
2022/10/18 02:58:19;;;;;;;1999.90;999.90;;;;;;;11.09;100.00;95439.06;5113633;28;20178;-69
2022/10/18 03:00:44;;;;;;;1999.90;999.90;;;;;;;11.08;100.00;95439.44;5113900;28;20261;-69
2022/10/18 03:03:10;;;;;;;1999.90;999.90;;;;;;;11.09;100.00;95451.94;5114574;28;20259;-58
2022/10/18 03:05:35;;;;;;;1999.90;999.90;;;;;;;11.07;100.00;95457.03;5114230;28;20260;-74
2022/10/18 03:08:00;;;;;;;1999.90;999.90;;;;;;;11.09;100.00;95454.66;5113763;28;20180;-74
2022/10/18 03:10:26;;;;;;;1999.90;999.90;;;;;;;11.10;100.00;95456.19;5113827;28;20175;-73
2022/10/18 03:12:51;;;;;;;1999.90;999.90;;;;;;;11.06;100.00;95448.06;5114484;28;20176;-74
2022/10/18 03:15:16;;;;;;;1999.90;999.90;;;;;;;11.05;100.00;95445.72;5113930;28;20180;-74
2022/10/18 03:17:42;;;;;;;1999.90;999.90;;;;;;;11.02;100.00;95446.53;5113745;28;20177;-73
2022/10/18 03:20:08;;;;;;;1999.90;999.90;;;;;;;11.02;100.00;95447.31;5114299;28;20186;-58
2022/10/18 03:22:33;;;;;;;1999.90;999.90;;;;;;;11.00;100.00;95448.91;5113868;28;20198;-58
2022/10/18 03:24:58;;;;;;;1999.90;999.90;;;;;;;10.98;100.00;95457.50;5113673;28;20207;-58
2022/10/18 03:27:24;;;;;;;1999.90;999.90;;;;;;;10.99;100.00;95469.97;5113144;28;20179;-58
2022/10/18 03:29:49;;;;;;;1999.90;999.90;;;;;;;10.99;100.00;95474.66;5114297;28;20281;-58
2022/10/18 03:32:14;;;;;;;1999.90;999.90;;;;;;;10.99;100.00;95480.13;5114141;28;20202;-58
2022/10/18 03:34:39;;;;;;;1999.90;999.90;;;;;;;10.99;100.00;95471.91;5113872;28;20168;-58
2022/10/18 03:37:05;;;;;;;1999.90;999.90;;;;;;;10.98;100.00;95481.31;5117397;28;20205;-58
2022/10/18 03:39:30;;;;;;;1999.90;999.90;;;;;;;10.98;100.00;95484.03;5117731;28;20181;-58
2022/10/18 03:41:56;;;;;;;1999.90;999.90;;;;;;;10.98;100.00;95479.34;5117528;28;20267;-58
2022/10/18 03:44:21;;;;;;;1999.90;999.90;;;;;;;10.96;100.00;95486.41;5117179;28;20195;-57
2022/10/18 03:46:46;;;;;;;1999.90;999.90;;;;;;;10.93;100.00;95476.28;5117268;28;20172;-57
2022/10/18 03:49:12;;;;;;;1999.90;999.90;;;;;;;10.90;100.00;95482.53;5117108;28;20169;-58
2022/10/18 03:51:37;;;;;;;1999.90;999.90;;;;;;;10.93;100.00;95481.75;5117304;28;20172;-57
2022/10/18 03:54:02;;;;;;;1999.90;999.90;;;;;;;10.91;100.00;95475.91;5117293;28;20173;-58
2022/10/18 03:56:28;;;;;;;1999.90;999.90;;;;;;;10.91;100.00;95478.63;5117218;28;20168;-58
2022/10/18 03:58:53;;;;;;;1999.90;999.90;;;;;;;10.94;100.00;95488.75;5116879;28;20179;-58
2022/10/18 04:01:18;;;;;;;1999.90;999.90;;;;;;;10.90;100.00;95485.28;5117188;28;20197;-57
2022/10/18 04:03:44;;;;;;;1999.90;999.90;;;;;;;10.94;100.00;95486.81;5117396;28;20203;-57
2022/10/18 04:06:09;;;;;;;1999.90;999.90;;;;;;;10.96;100.00;95489.16;5116886;28;20168;-58
2022/10/18 04:08:35;;;;;;;1999.90;999.90;;;;;;;10.95;100.00;95495.75;5117141;28;20263;-58
2022/10/18 04:11:07;;;;;;;1999.90;999.90;;;;;;;10.95;100.00;95485.63;5117174;28;20174;-58
2022/10/18 04:13:32;;;;;;;1999.90;999.90;;;;;;;10.98;100.00;95489.50;5116663;28;20182;-58
2022/10/18 04:15:57;;;;;;;1999.90;999.90;;;;;;;11.00;100.00;95492.63;5117026;28;20179;-58
2022/10/18 04:18:23;;;;;;;1999.90;999.90;;;;;;;10.95;100.00;95495.75;5116831;28;20172;-58
2022/10/18 04:20:48;;;;;;;1999.90;999.90;;;;;;;10.96;100.00;95498.09;5116628;28;20210;-58
2022/10/18 04:23:13;;;;;;;1999.90;999.90;;;;;;;10.97;100.00;95498.88;5116403;28;20192;-58
2022/10/18 04:25:39;;;;;;;1999.90;999.90;;;;;;;10.97;100.00;95490.69;5116702;28;20259;-58
2022/10/18 04:28:04;;;;;;;1999.90;999.90;;;;;;;10.97;100.00;95490.69;5116611;28;20252;-58
2022/10/18 04:30:29;;;;;;;1999.90;999.90;;;;;;;10.95;100.00;95487.56;5116193;28;20173;-59
2022/10/18 04:32:55;;;;;;;1999.90;999.90;;;;;;;10.96;100.00;95500.06;5116601;28;20165;-62
2022/10/18 04:35:23;;;;;;;1999.90;999.90;;;;;;;10.96;100.00;95497.34;5116693;28;20164;-57
2022/10/18 04:37:48;;;;;;;1999.90;999.90;;;;;;;10.96;100.00;95497.34;5116242;28;20176;-70
2022/10/18 04:40:14;;;;;;;1999.90;999.90;;;;;;;10.97;100.00;95493.41;5116896;28;20251;-72
2022/10/18 04:42:39;;;;;;;1999.90;999.90;;;;;;;10.95;100.00;95495.75;5116481;28;20168;-72
2022/10/18 04:45:05;;;;;;;1999.90;999.90;;;;;;;10.91;100.00;95495.03;5116616;28;20260;-71
2022/10/18 04:47:30;;;;;;;1999.90;999.90;;;;;;;10.83;100.00;95488.06;5114962;28;20196;-71
2022/10/18 04:49:56;;;;;;;1999.90;999.90;;;;;;;10.81;100.00;95487.72;5116441;28;20166;-72
2022/10/18 04:52:21;;;;;;;1999.90;999.90;;;;;;;10.76;100.00;95488.13;5116345;28;20183;-61
2022/10/18 04:54:46;;;;;;;1999.90;999.90;;;;;;;10.71;100.00;95477.63;5115898;28;20172;-61
2022/10/18 04:57:12;;;;;;;1999.90;999.90;;;;;;;10.67;100.00;95479.63;5116223;28;20180;-65
2022/10/18 04:59:37;;;;;;;1999.90;999.90;;;;;;;10.61;100.00;95470.28;5116763;28;20209;-62
2022/10/18 05:02:03;;;;;;;1999.90;999.90;;;;;;;10.62;100.00;95471.81;5116159;28;20192;-61
2022/10/18 05:04:29;;;;;;;1999.90;999.90;;;;;;;10.60;100.00;95466.00;5116101;28;20192;-61
2022/10/18 05:06:54;;;;;;;1999.90;999.90;;;;;;;10.59;100.00;95472.66;5115804;28;20194;-62
2022/10/18 05:09:23;;;;;;;1999.90;999.90;;;;;;;10.61;100.00;95470.28;5115539;28;20174;-58
2022/10/18 05:11:48;;;;;;;1999.90;999.90;;;;;;;10.62;100.00;95471.81;5115841;28;20171;-59
2022/10/18 05:14:14;;;;;;;1999.90;999.90;;;;;;;10.66;100.00;95478.81;5115510;28;20186;-59
2022/10/18 05:16:39;;;;;;;1999.90;999.90;;;;;;;10.70;100.00;95478.81;5115669;28;20179;-59
2022/10/18 05:19:05;;;;;;;1999.90;999.90;;;;;;;10.73;100.00;95486.19;5115741;28;20172;-59
2022/10/18 05:21:31;;;;;;;1999.90;999.90;;;;;;;10.72;100.00;95490.09;5115539;28;20221;-59
2022/10/18 05:23:56;;;;;;;1999.90;999.90;;;;;;;10.70;100.00;95478.81;5116200;28;20168;-59
2022/10/18 05:26:21;;;;;;;1999.90;999.90;;;;;;;10.69;100.00;95478.03;5115326;28;20199;-59
2022/10/18 05:28:49;;;;;;;1999.90;999.90;;;;;;;10.70;100.00;95468.66;5115179;28;20241;-58
2022/10/18 05:31:14;;;;;;;1999.90;999.90;;;;;;;10.68;100.00;95459.31;5115269;28;20192;-62
2022/10/18 05:33:40;;;;;;;1999.90;999.90;;;;;;;10.63;100.00;95451.56;5115778;28;20200;-62
2022/10/18 05:36:05;;;;;;;1999.90;999.90;;;;;;;10.62;100.00;95456.22;5115258;28;20204;-62
2022/10/18 05:38:31;;;;;;;1999.90;999.90;;;;;;;10.68;100.00;95451.91;5114982;28;20186;-62
2022/10/18 05:40:58;;;;;;;1999.90;999.90;;;;;;;10.76;100.00;95449.88;5115185;28;20202;-62
2022/10/18 05:43:27;;;;;;;1999.90;999.90;;;;;;;10.88;100.00;95447.44;5115581;28;20172;-62
2022/10/18 05:45:52;;;;;;;1999.90;999.90;;;;;;;11.03;100.00;95448.09;5115229;28;20170;-61
2022/10/18 05:48:18;;;;;;;1999.90;999.90;;;;;;;11.20;100.00;95447.13;5115951;28;20177;-69
2022/10/18 05:50:44;;;;;;;1999.90;999.90;;;;;;;11.38;100.00;95453.19;5115175;28;20173;-70
2022/10/18 05:53:09;;;;;;;1999.90;999.90;;;;;;;11.64;100.00;95455.28;5115299;28;20186;-70
2022/10/18 05:55:35;;;;;;;1999.90;999.90;;;;;;;12.00;100.00;95450.94;5114597;28;20192;-71
2022/10/18 05:58:02;;;;;;;1999.90;999.90;;;;;;;12.34;100.00;95454.38;5114702;28;20221;-72
2022/10/18 06:00:28;;;;;;;1999.90;999.90;;;;;;;12.65;100.00;95447.69;5114855;28;20191;-70
2022/10/18 06:02:53;;;;;;;1999.90;999.90;;;;;;;13.03;100.00;95446.31;5115355;28;20177;-71
2022/10/18 06:05:18;;;;;;;1999.90;999.90;;;;;;;13.48;100.00;95439.25;5114251;28;20229;-57
2022/10/18 06:07:44;;;;;;;1999.90;999.90;;;;;;;13.99;100.00;95449.59;5114967;28;20303;-68
2022/10/18 06:10:09;;;;;;;1999.90;999.90;;;;;;;14.57;100.00;95443.25;5114565;28;20174;-70
2022/10/18 06:12:34;;;;;;;1999.90;999.90;;;;;;;14.87;100.00;95456.72;5114662;28;20172;-70
2022/10/18 06:15:00;;;;;;;1999.90;999.90;;;;;;;14.90;100.00;95461.31;5114643;28;20167;-68
2022/10/18 06:17:25;;;;;;;1999.90;999.90;;;;;;;14.93;100.00;95470.72;5114940;28;20168;-67
2022/10/18 06:19:51;;;;;;;1999.90;999.90;;;;;;;15.18;100.00;95466.16;5114684;28;20258;-67
2022/10/18 06:22:16;;;;;;;1999.90;999.90;;;;;;;15.66;100.00;95462.59;5114239;28;20195;-67
2022/10/18 06:24:41;;;;;;;1999.90;999.90;;;;;;;15.42;100.00;95467.53;5114532;28;20172;-71
2022/10/18 06:27:08;;;;;;;1999.90;999.90;;;;;;;15.66;100.00;95463.34;5114531;28;20168;-58
2022/10/18 06:29:38;;;;;;;1999.90;999.90;;;;;;;16.15;100.00;95467.50;5113857;28;20246;-59
2022/10/18 06:32:05;;;;;;;1999.90;999.90;;;;;;;16.60;100.00;95464.63;5114306;28;20199;-58
2022/10/18 06:34:30;;;;;;;1999.90;999.90;;;;;;;17.15;100.00;95463.31;5114685;28;20194;-58
2022/10/18 06:36:55;;;;;;;1999.90;999.90;;;;;;;16.80;100.00;95475.47;5114401;28;20176;-58
2022/10/18 06:39:21;;;;;;;1999.90;999.90;;;;;;;16.56;100.00;95493.50;5114268;28;20210;-58
2022/10/18 06:41:46;;;;;;;1999.90;999.90;;;;;;;16.32;100.00;95477.25;5113828;28;20203;-61
2022/10/18 06:44:16;;;;;;;1999.90;999.90;;;;;;;16.00;100.00;95469.09;5113920;28;20168;-62
2022/10/18 06:46:45;;;;;;;1999.90;999.90;;;;;;;15.73;100.00;95468.69;5113998;28;20205;-68
2022/10/18 06:49:13;;;;;;;1999.90;999.90;;;;;;;15.39;100.00;95460.16;5113854;28;20218;-68
2022/10/18 06:51:39;;;;;;;1999.90;999.90;;;;;;;15.30;100.00;95465.44;5113850;28;20176;-68
2022/10/18 06:54:04;;;;;;;1999.90;999.90;;;;;;;15.26;100.00;95475.78;5114321;28;20225;-68
2022/10/18 06:56:29;;;;;;;1999.90;999.90;;;;;;;15.29;100.00;95477.66;5113607;28;20179;-69
2022/10/18 06:58:55;;;;;;;1999.90;999.90;;;;;;;15.22;100.00;95472.34;5113812;28;20178;-68
2022/10/18 07:01:20;;;;;;;1999.90;999.90;;;;;;;15.18;100.00;95479.13;5113727;28;20248;-61
2022/10/18 07:03:47;;;;;;;1999.90;999.90;;;;;;;15.19;100.00;95475.94;5114025;28;20188;-61
2022/10/18 07:06:15;;;;;;;1999.90;999.90;;;;;;;15.22;100.00;95477.06;5114012;28;20326;-63
2022/10/18 07:08:41;;;;;;;1999.90;999.90;;;;;;;15.22;100.00;95471.56;5113801;28;20205;-62
2022/10/18 07:11:12;;;;;;;1999.90;999.90;;;;;;;15.24;100.00;95474.66;5115778;28;20172;-62
2022/10/18 07:13:38;;;;;;;1999.90;999.90;;;;;;;15.26;100.00;95480.53;5118656;28;20182;-62
2022/10/18 07:16:05;;;;;;;1999.90;999.90;;;;;;;15.36;100.00;95479.50;5117923;28;20172;-61
2022/10/18 07:18:39;;;;;;;1999.90;999.90;;;;;;;15.52;100.00;95474.72;5117648;28;20176;-62
2022/10/18 07:21:09;;;;;;;1999.90;999.90;;;;;;;15.72;100.00;95480.91;5117405;28;20203;-72
2022/10/18 07:23:37;;;;;;;1999.90;999.90;;;;;;;15.92;100.00;95475.25;5118360;28;20176;-60
2022/10/18 07:26:10;;;;;;;1999.90;999.90;;;;;;;16.10;100.00;95470.78;5117778;28;20176;-60
2022/10/18 07:28:36;;;;;;;1999.90;999.90;;;;;;;16.39;100.00;95460.50;5117849;28;20347;-60
2022/10/18 07:31:05;;;;;;;1999.90;999.90;;;;;;;17.00;100.00;95454.69;5119056;28;20184;-60
2022/10/18 07:33:31;;;;;;;1999.90;999.90;;;;;;;17.65;100.00;95457.69;5118482;28;20183;-60
2022/10/18 07:36:03;;;;;;;1999.90;999.90;;;;;;;18.51;100.00;95441.16;5117493;28;20176;-61
2022/10/18 07:38:29;;;;;;;1999.90;999.90;;;;;;;19.28;100.00;95413.94;5117624;28;20176;-62
2022/10/18 07:40:58;;;;;;;1999.90;999.90;;;;;;;19.35;100.00;95418.41;5117724;28;20214;-62
2022/10/18 07:43:24;;;;;;;1999.90;999.90;;;;;;;19.10;100.00;95432.47;5117515;28;20184;-63
2022/10/18 07:45:58;;;;;;;1999.90;999.90;;;;;;;19.04;100.00;95448.13;5117062;28;20271;-62
2022/10/18 07:48:23;;;;;;;1999.90;999.90;;;;;;;18.74;100.00;95451.69;5117785;28;20186;-63
2022/10/18 07:50:49;;;;;;;1999.90;999.90;;;;;;;18.57;100.00;95451.16;5117356;28;20262;-62
2022/10/18 07:53:14;;;;;;;1999.90;999.90;;;;;;;18.83;100.00;95437.94;5117099;28;20189;-62
2022/10/18 07:55:40;;;;;;;1999.90;999.90;;;;;;;18.91;100.00;95439.94;5117556;28;20258;-70
2022/10/18 07:58:06;;;;;;;1999.90;999.90;;;;;;;19.00;100.00;95441.97;5117105;28;20175;-62
2022/10/18 08:00:31;;;;;;;1999.90;999.90;;;;;;;18.90;100.00;95449.47;5117136;28;20196;-72
2022/10/18 08:02:58;;;;;;;1999.90;999.90;;;;;;;19.00;100.00;95441.97;5117170;28;20182;-73
2022/10/18 08:05:25;;;;;;;1999.90;999.90;;;;;;;19.17;100.00;95443.25;5116991;28;20212;-71
2022/10/18 08:07:51;;;;;;;1999.90;999.90;;;;;;;20.28;100.00;95428.59;5117108;28;20203;-72
2022/10/18 08:10:16;;;;;;;1999.90;999.90;;;;;;;22.33;100.00;95371.50;5117266;28;20203;-72
2022/10/18 08:12:41;;;;;;;1999.90;999.90;;;;;;;23.66;100.00;95340.03;5117103;28;20180;-71
2022/10/18 08:15:07;;;;;;;1999.90;999.90;;;;;;;25.19;100.00;96148.09;5117097;28;20192;-61
2022/10/18 08:17:33;;;;;;;1999.90;999.90;;;;;;;25.45;100.00;96238.66;5116945;28;20183;-70
2022/10/18 08:19:58;;;;;;;1999.90;999.90;;;;;;;25.56;100.00;96275.25;5117462;28;20175;-68
2022/10/18 08:22:23;;;;;;;1999.90;999.90;;;;;;;25.50;100.00;96287.59;5117305;28;20261;-67
2022/10/18 08:24:49;;;;;;;1999.90;999.90;;;;;;;25.57;100.00;96293.59;5118096;28;20179;-68
2022/10/18 08:27:14;;;;;;;1999.90;999.90;;;;;;;25.93;100.00;96292.47;5116716;28;20204;-71
2022/10/18 08:29:40;;;;;;;1999.90;999.90;;;;;;;27.10;100.00;96305.88;5117240;28;20173;-70
2022/10/18 08:32:06;;;;;;;1999.90;999.90;;;;;;;26.79;99.05;96307.72;5116896;28;20168;-61
2022/10/18 08:34:32;;;;;;;1999.90;999.90;;;;;;;26.89;97.91;96307.13;5116689;28;20190;-63
2022/10/18 08:36:58;;;;;;;1999.90;999.90;;;;;;;25.95;100.00;96307.56;5116334;28;20168;-60
2022/10/18 08:39:23;;;;;;;1999.90;999.90;;;;;;;26.05;100.00;96306.22;5116616;28;20217;-60
2022/10/18 08:42:18;;;;;;;1999.90;999.90;;;;;;;26.53;95.75;96301.94;5116553;28;20272;-60
2022/10/18 08:44:49;;;;;;;1999.90;999.90;;;;;;;27.53;93.99;96304.94;5117053;28;20168;-60
2022/10/18 08:47:18;;;;;;;1999.90;999.90;;;;;;;28.05;86.02;96297.38;5116014;28;20266;-60
2022/10/18 08:49:59;;;;;;;1999.90;999.90;;;;;;;28.69;81.70;96303.31;5116109;28;20187;-60
2022/10/18 08:52:46;;;;;;;1999.90;999.90;;;;;;;29.09;76.95;96302.34;5117071;28;20167;-60
2022/10/18 08:55:20;;;;;;;1999.90;999.90;;;;;;;29.31;75.65;96305.28;5116832;28;20180;-71
2022/10/18 08:57:47;;;;;;;1999.90;999.90;;;;;;;28.89;77.53;96302.44;5116810;28;20183;-71
2022/10/18 09:00:21;;;;;;;1999.90;999.90;;;;;;;29.30;77.31;96300.91;5116174;28;20178;-67
2022/10/18 09:03:11;;;;;;;1999.90;999.90;;;;;;;29.37;76.72;96303.25;5116187;28;20175;-70
2022/10/18 09:05:37;;;;;;;1999.90;999.90;;;;;;;29.94;72.55;96306.59;5116248;28;20188;-68
2022/10/18 09:08:17;;;;;;;1999.90;999.90;;;;;;;30.40;71.59;96293.59;5116615;28;20172;-68
2022/10/18 09:10:45;;;;;;;1999.90;999.90;;;;;;;29.51;75.58;96293.84;5116425;28;20184;-65
2022/10/18 09:13:39;;;;;;;1999.90;999.90;;;;;;;29.71;75.02;96296.53;5116823;28;20240;-61
2022/10/18 09:16:13;;;;;;;1999.90;999.90;;;;;;;29.28;75.97;96297.84;5116567;28;20180;-61
2022/10/18 09:19:08;;;;;;;1999.90;999.90;;;;;;;29.61;76.15;96292.38;5115892;28;20247;-62
2022/10/18 09:21:36;;;;;;;1999.90;999.90;;;;;;;28.75;80.16;96292.09;5116092;28;20202;-62
2022/10/18 09:24:13;;;;;;;1999.90;999.90;;;;;;;28.42;86.63;96289.00;5115730;28;20174;-64
2022/10/18 09:26:48;;;;;;;1999.90;999.90;;;;;;;27.58;94.27;96293.03;5116256;28;20251;-62
2022/10/18 09:29:36;;;;;;;1999.90;999.90;;;;;;;28.26;89.18;96291.19;5115263;28;20219;-65
2022/10/18 09:32:43;;;;;;;1999.90;999.90;;;;;;;28.85;84.30;96299.09;5116200;28;20172;-68
2022/10/18 09:35:23;;;;;;;1999.90;999.90;;;;;;;29.12;82.27;96296.47;5116105;28;20171;-71
2022/10/18 09:37:52;;;;;;;1999.90;999.90;;;;;;;28.94;84.10;96291.22;5115125;28;20171;-71
2022/10/18 09:40:24;;;;;;;1999.90;999.90;;;;;;;28.89;84.13;96285.56;5115698;28;20195;-71
2022/10/18 09:42:57;;;;;;;1999.90;999.90;;;;;;;29.66;79.12;96283.97;5115663;28;20160;-70
2022/10/18 09:45:29;;;;;;;1999.90;999.90;;;;;;;29.63;77.21;96289.81;5115697;28;20178;-61
2022/10/18 09:48:16;;;;;;;1999.90;999.90;;;;;;;29.26;80.79;96283.50;5115866;28;20192;-62
2022/10/18 09:50:42;;;;;;;1999.90;999.90;;;;;;;28.93;83.20;96291.72;5115899;28;20164;-62
2022/10/18 09:53:26;;;;;;;1999.90;999.90;;;;;;;27.97;91.05;96283.00;5115005;28;20186;-62
2022/10/18 09:56:05;;;;;;;1999.90;999.90;;;;;;;26.51;100.00;96275.69;5115787;28;20159;-62
2022/10/18 09:58:41;;;;;;;1999.90;999.90;;;;;;;26.08;100.00;96282.88;5115444;28;20199;-62
2022/10/18 10:01:08;;;;;;;1999.90;999.90;;;;;;;26.11;100.00;96279.06;5114731;28;20228;-62
2022/10/18 10:03:34;;;;;;;1999.90;999.90;;;;;;;26.37;100.00;96271.63;5114664;28;20187;-67
2022/10/18 10:06:11;;;;;;;1999.90;999.90;;;;;;;26.75;100.00;96274.28;5114951;28;20258;-71
2022/10/18 10:08:40;;;;;;;1999.90;999.90;;;;;;;27.43;100.00;96278.28;5114676;28;20183;-60
2022/10/18 10:11:30;;;;;;;1999.90;999.90;;;;;;;26.92;100.00;96269.69;5114747;28;20179;-60
2022/10/18 10:14:06;;;;;;;1999.90;999.90;;;;;;;26.93;100.00;96268.44;5115126;28;20312;-61
2022/10/18 10:16:32;;;;;;;1999.90;999.90;;;;;;;27.44;100.00;96268.59;5114667;28;20160;-60
2022/10/18 10:18:57;;;;;;;1999.90;999.90;;;;;;;27.47;100.00;96264.03;5114482;28;20172;-60
2022/10/18 10:21:23;;;;;;;1999.90;999.90;;;;;;;27.30;100.00;96265.88;5114635;28;20195;-61
2022/10/18 10:23:58;;;;;;;1999.90;999.90;;;;;;;26.88;100.00;96262.75;5115165;28;20213;-62
2022/10/18 10:26:32;;;;;;;1999.90;999.90;;;;;;;26.04;100.00;96265.47;5114814;28;20170;-63
2022/10/18 10:28:57;;;;;;;1999.90;999.90;;;;;;;26.06;100.00;96268.56;5114201;28;20218;-62
2022/10/18 10:31:22;;;;;;;1999.90;999.90;;;;;;;26.44;100.00;96259.25;5114602;28;20179;-63
2022/10/18 10:34:26;;;;;;;1999.90;999.90;;;;;;;26.55;100.00;96248.97;5114271;28;20206;-62
2022/10/18 10:36:53;;;;;;;1999.90;999.90;;;;;;;26.56;100.00;96261.75;5101449;28;20184;-62
2022/10/18 10:39:21;;;;;;;1999.90;999.90;;;;;;;26.64;100.00;96260.09;5114874;28;20178;-63
2022/10/18 10:41:59;;;;;;;1999.90;999.90;;;;;;;26.79;100.00;96263.63;5114211;28;20211;-64
2022/10/18 10:44:28;;;;;;;1999.90;999.90;;;;;;;27.26;100.00;96256.88;5113324;28;20210;-68
2022/10/18 10:46:54;;;;;;;1999.90;999.90;;;;;;;27.75;97.07;96260.25;5114547;28;20176;-66
2022/10/18 10:49:22;;;;;;;1999.90;999.90;;;;;;;27.51;94.43;96268.19;5114569;28;20255;-71
2022/10/18 10:51:59;;;;;;;1999.90;999.90;;;;;;;27.60;97.04;96258.81;5114201;28;20167;-68
2022/10/18 10:54:26;;;;;;;1999.90;999.90;;;;;;;27.39;97.62;96260.88;5113894;28;20262;-71